createdAt,value
2023-04-21T00:02:25.933Z,10.47
2023-04-21T00:04:54.297Z,10.45
2023-04-21T00:07:22.833Z,10.45
2023-04-21T00:09:51.054Z,10.39
2023-04-21T00:12:19.925Z,10.35
2023-04-21T00:14:47.925Z,10.33
2023-04-21T00:17:17.522Z,10.29
2023-04-21T00:19:46.015Z,10.29
2023-04-21T00:22:15.245Z,10.26
2023-04-21T00:24:43.453Z,10.24
2023-04-21T00:27:12.044Z,10.20
2023-04-21T00:29:40.547Z,10.15
2023-04-21T00:32:11.364Z,10.12
2023-04-21T00:34:40.882Z,10.08
2023-04-21T00:37:08.972Z,10.04
2023-04-21T00:39:37.419Z,10.04
2023-04-21T00:42:08.412Z,10.03
2023-04-21T00:44:36.674Z,10.03
2023-04-21T00:47:05.028Z,10.03
2023-04-21T00:49:33.828Z,10.01
2023-04-21T00:52:03.903Z,9.97
2023-04-21T00:54:32.837Z,9.97
2023-04-21T00:57:02.975Z,9.94
2023-04-21T00:59:31.398Z,9.91
2023-04-21T01:02:02.554Z,9.89
2023-04-21T01:04:35.613Z,9.86
2023-04-21T01:07:06.170Z,9.82
2023-04-21T01:09:36.852Z,9.80
2023-04-21T01:12:06.107Z,9.78
2023-04-21T01:14:34.317Z,9.76
2023-04-21T01:17:04.160Z,9.76
2023-04-21T01:19:35.947Z,9.76
2023-04-21T01:22:05.452Z,9.78
2023-04-21T01:24:37.985Z,9.72
2023-04-21T01:27:11.749Z,9.64
2023-04-21T01:29:40.758Z,9.57
2023-04-21T01:32:10.625Z,9.51
2023-04-21T01:34:39.184Z,9.47
2023-04-21T01:37:10.746Z,9.45
2023-04-21T01:39:39.794Z,9.43
2023-04-21T01:42:08.916Z,9.41
2023-04-21T01:44:37.597Z,9.38
2023-04-21T01:47:06.192Z,9.43
2023-04-21T01:49:34.467Z,9.39
2023-04-21T01:52:02.631Z,9.47
2023-04-21T01:54:34.969Z,9.43
2023-04-21T01:57:03.341Z,9.41
2023-04-21T01:59:31.449Z,9.45
2023-04-21T02:01:59.698Z,9.49
2023-04-21T02:04:28.054Z,9.37
2023-04-21T02:06:56.216Z,9.32
2023-04-21T02:09:25.865Z,9.20
2023-04-21T02:11:57.250Z,9.11
2023-04-21T02:14:25.859Z,9.06
2023-04-21T02:16:54.759Z,8.94
2023-04-21T02:19:23.055Z,8.87
2023-04-21T02:21:51.148Z,8.83
2023-04-21T02:24:19.326Z,8.80
2023-04-21T02:26:47.512Z,8.75
2023-04-21T02:29:17.146Z,8.74
2023-04-21T02:31:58.891Z,8.74
2023-04-21T02:34:31.519Z,8.74
2023-04-21T02:36:59.937Z,8.71
2023-04-21T02:39:27.935Z,8.65
2023-04-21T02:41:56.137Z,8.62
2023-04-21T02:44:26.342Z,8.63
2023-04-21T02:46:54.650Z,8.66
2023-04-21T02:49:22.787Z,8.68
2023-04-21T02:51:51.194Z,8.67
2023-04-21T02:54:19.334Z,8.66
2023-04-21T02:56:47.497Z,8.68
2023-04-21T02:59:17.104Z,8.62
2023-04-21T03:01:49.419Z,8.51
2023-04-21T03:04:17.760Z,8.41
2023-04-21T03:06:46.072Z,8.34
2023-04-21T03:09:14.121Z,8.31
2023-04-21T03:11:42.190Z,8.25
2023-04-21T03:14:10.234Z,8.17
2023-04-21T03:16:38.510Z,8.13
2023-04-21T03:19:08.138Z,8.16
2023-04-21T03:21:38.740Z,8.13
2023-04-21T03:24:07.664Z,8.19
2023-04-21T03:26:38.632Z,8.21
2023-04-21T03:29:06.753Z,8.27
2023-04-21T03:31:34.887Z,8.17
2023-04-21T03:34:03.070Z,8.20
2023-04-21T03:36:32.584Z,8.14
2023-04-21T03:39:12.859Z,8.03
2023-04-21T03:41:47.717Z,8.02
2023-04-21T03:44:15.855Z,8.14
2023-04-21T03:46:44.000Z,8.19
2023-04-21T03:49:12.234Z,8.20
2023-04-21T03:51:41.725Z,8.24
2023-04-21T03:54:09.889Z,8.29
2023-04-21T03:56:38.137Z,8.36
2023-04-21T03:59:06.546Z,8.39
2023-04-21T04:01:35.947Z,8.43
2023-04-21T04:04:04.451Z,8.53
2023-04-21T04:06:33.442Z,8.58
2023-04-21T04:09:04.897Z,8.66
2023-04-21T04:11:33.089Z,8.80
2023-04-21T04:14:01.627Z,8.95
2023-04-21T04:16:30.075Z,9.01
2023-04-21T04:18:58.992Z,9.19
2023-04-21T04:21:27.738Z,9.28
2023-04-21T04:23:56.011Z,9.45
2023-04-21T04:26:25.912Z,9.53
2023-04-21T04:28:56.602Z,9.70
2023-04-21T04:31:25.807Z,9.76
2023-04-21T04:33:55.559Z,9.85
2023-04-21T04:36:24.054Z,9.93
2023-04-21T04:38:52.838Z,10.09
2023-04-21T04:41:21.166Z,10.30
2023-04-21T04:43:51.272Z,10.59
2023-04-21T04:46:20.743Z,10.63
2023-04-21T04:48:49.401Z,10.76
2023-04-21T04:54:03.456Z,11.18
2023-04-21T04:56:32.366Z,11.09
2023-04-21T04:59:01.787Z,11.29
2023-04-21T05:01:31.151Z,11.47
2023-04-21T05:03:59.923Z,11.51
2023-04-21T05:06:28.566Z,11.54
2023-04-21T05:08:58.086Z,11.74
2023-04-21T05:11:26.669Z,11.84
2023-04-21T05:13:55.760Z,11.87
2023-04-21T05:16:25.485Z,12.04
2023-04-21T05:18:55.467Z,12.21
2023-04-21T05:21:28.443Z,12.32
2023-04-21T05:23:57.113Z,12.39
2023-04-21T05:26:25.858Z,12.51
2023-04-21T05:28:53.931Z,12.52
2023-04-21T05:31:21.983Z,12.62
2023-04-21T05:33:51.554Z,12.79
2023-04-21T05:36:20.562Z,12.73
2023-04-21T05:38:50.068Z,12.83
2023-04-21T05:41:36.906Z,12.90
2023-04-21T05:44:05.091Z,13.00
2023-04-21T05:46:35.098Z,13.06
2023-04-21T05:49:04.724Z,13.24
2023-04-21T05:51:32.849Z,13.31
2023-04-21T05:54:01.145Z,13.28
2023-04-21T05:56:29.286Z,13.46
2023-04-21T05:58:57.348Z,13.59
2023-04-21T06:01:26.205Z,13.71
2023-04-21T06:03:54.496Z,13.80
2023-04-21T06:06:24.610Z,13.96
2023-04-21T06:08:52.919Z,14.10
2023-04-21T06:11:21.243Z,14.24
2023-04-21T06:13:49.488Z,14.29
2023-04-21T06:16:17.614Z,14.34
2023-04-21T06:18:45.930Z,14.40
2023-04-21T06:21:13.965Z,14.50
2023-04-21T06:23:43.572Z,14.50
2023-04-21T06:26:11.679Z,14.47
2023-04-21T06:28:39.692Z,14.53
2023-04-21T06:31:09.808Z,14.60
2023-04-21T06:33:38.189Z,14.64
2023-04-21T06:36:07.367Z,14.68
2023-04-21T06:38:35.533Z,14.71
2023-04-21T06:41:06.683Z,14.81
2023-04-21T06:43:34.927Z,14.74
2023-04-21T06:46:02.961Z,14.78
2023-04-21T06:48:31.439Z,14.84
2023-04-21T06:51:00.760Z,14.98
2023-04-21T06:53:28.907Z,15.06
2023-04-21T06:55:56.996Z,15.06
2023-04-21T06:58:26.744Z,15.10
2023-04-21T07:00:55.457Z,15.18
2023-04-21T07:03:23.657Z,15.30
2023-04-21T07:05:52.762Z,15.31
2023-04-21T07:08:20.699Z,15.28
2023-04-21T07:10:48.761Z,15.37
2023-04-21T07:13:17.933Z,15.52
2023-04-21T07:15:47.606Z,15.67
2023-04-21T07:18:15.758Z,15.71
2023-04-21T07:20:44.004Z,15.73
2023-04-21T07:23:12.277Z,15.77
2023-04-21T07:25:40.564Z,15.69
2023-04-21T07:28:08.969Z,15.73
2023-04-21T07:30:37.073Z,15.78
2023-04-21T07:33:06.817Z,15.81
2023-04-21T07:35:35.006Z,15.89
2023-04-21T07:38:03.050Z,15.99
2023-04-21T07:40:31.994Z,15.97
2023-04-21T07:43:00.027Z,16.10
2023-04-21T07:45:28.701Z,16.18
2023-04-21T07:47:57.528Z,16.31
2023-04-21T07:50:27.216Z,16.40
2023-04-21T07:52:55.377Z,16.44
2023-04-21T07:55:23.659Z,16.51
2023-04-21T07:57:51.846Z,16.62
2023-04-21T08:00:20.763Z,16.69
2023-04-21T08:02:48.970Z,16.75
2023-04-21T08:05:17.569Z,16.80
2023-04-21T08:07:47.140Z,16.93
2023-04-21T08:10:15.559Z,17.08
2023-04-21T08:12:43.755Z,17.10
2023-04-21T08:15:12.733Z,17.06
2023-04-21T08:17:41.002Z,17.02
2023-04-21T08:20:10.921Z,16.98
2023-04-21T08:22:39.256Z,17.11
2023-04-21T08:25:09.832Z,17.08
2023-04-21T08:27:40.212Z,17.32
2023-04-21T08:30:10.817Z,17.46
2023-04-21T08:32:39.072Z,17.71
2023-04-21T08:35:08.064Z,17.82
2023-04-21T08:37:38.479Z,17.85
2023-04-21T08:40:09.402Z,17.92
2023-04-21T08:42:39.315Z,17.80
2023-04-21T08:45:08.835Z,17.77
2023-04-21T08:47:41.151Z,17.82
2023-04-21T08:50:14.802Z,17.92
2023-04-21T08:52:43.016Z,17.83
2023-04-21T08:55:14.291Z,17.94
2023-04-21T08:57:42.571Z,18.05
2023-04-21T09:00:11.685Z,18.20
2023-04-21T09:03:00.602Z,18.40
2023-04-21T09:05:31.625Z,18.38
2023-04-21T09:08:10.494Z,18.38
2023-04-21T09:10:47.526Z,18.37
2023-04-21T09:13:15.870Z,18.54
2023-04-21T09:15:45.949Z,18.58
2023-04-21T09:18:16.212Z,18.70
2023-04-21T09:20:47.092Z,18.76
2023-04-21T09:23:15.626Z,18.85
2023-04-21T09:25:46.715Z,18.93
2023-04-21T09:28:16.567Z,18.82
2023-04-21T09:30:45.345Z,18.91
2023-04-21T09:33:27.890Z,19.01
2023-04-21T09:36:02.395Z,19.01
2023-04-21T09:38:30.505Z,19.07
2023-04-21T09:41:01.488Z,19.11
2023-04-21T09:43:29.731Z,19.21
2023-04-21T09:45:59.616Z,19.18
2023-04-21T09:48:32.354Z,19.14
2023-04-21T09:51:25.431Z,19.13
2023-04-21T09:53:54.455Z,19.37
2023-04-21T09:56:26.390Z,19.44
2023-04-21T09:58:56.869Z,19.42
2023-04-21T10:01:29.006Z,19.57
2023-04-21T10:03:57.804Z,19.58
2023-04-21T10:06:26.524Z,19.47
2023-04-21T10:08:59.178Z,19.35
2023-04-21T10:11:28.769Z,19.34
2023-04-21T10:13:57.102Z,19.34
2023-04-21T10:16:26.621Z,19.52
2023-04-21T10:18:55.453Z,19.65
2023-04-21T10:21:24.618Z,19.79
2023-04-21T10:23:54.636Z,19.88
2023-04-21T10:26:24.186Z,19.82
2023-04-21T10:28:59.661Z,19.93
2023-04-21T10:31:32.552Z,19.98
2023-04-21T10:34:30.853Z,20.01
2023-04-21T10:37:18.097Z,20.13
2023-04-21T10:39:52.923Z,20.27
2023-04-21T10:42:38.643Z,20.45
2023-04-21T10:45:17.252Z,20.58
2023-04-21T10:47:51.633Z,20.71
2023-04-21T10:50:25.913Z,21.17
2023-04-21T10:52:59.385Z,21.38
2023-04-21T10:55:30.048Z,21.34
2023-04-21T10:57:59.428Z,20.99
2023-04-21T11:00:29.478Z,20.83
2023-04-21T11:03:04.321Z,20.82
2023-04-21T11:05:36.227Z,20.94
2023-04-21T11:08:06.444Z,20.99
2023-04-21T11:10:49.233Z,20.99
2023-04-21T11:13:17.380Z,20.79
2023-04-21T11:15:59.732Z,20.96
2023-04-21T11:18:41.936Z,21.03
2023-04-21T11:21:18.452Z,21.24
2023-04-21T11:23:50.916Z,21.06
2023-04-21T11:26:21.222Z,21.03
2023-04-21T11:28:51.045Z,21.06
2023-04-21T11:31:20.535Z,20.71
2023-04-21T11:33:51.568Z,20.84
2023-04-21T11:36:23.092Z,20.91
2023-04-21T11:38:51.406Z,20.92
2023-04-21T11:41:22.824Z,21.00
2023-04-21T11:43:51.989Z,21.10
2023-04-21T11:46:26.292Z,20.95
2023-04-21T11:49:02.065Z,20.89
2023-04-21T11:51:35.242Z,20.87
2023-04-21T11:54:03.660Z,20.57
2023-04-21T11:56:35.914Z,20.71
2023-04-21T11:59:09.509Z,20.75
2023-04-21T12:01:44.750Z,21.15
2023-04-21T12:04:16.411Z,21.45
2023-04-21T12:06:45.224Z,21.64
2023-04-21T12:09:19.565Z,21.70
2023-04-21T12:11:51.222Z,21.56
2023-04-21T12:14:20.690Z,21.47
2023-04-21T12:16:53.158Z,21.42
2023-04-21T12:19:25.500Z,20.92
2023-04-21T12:21:57.551Z,21.01
2023-04-21T12:24:26.395Z,20.83
2023-04-21T12:26:57.093Z,21.08
2023-04-21T12:29:25.721Z,21.43
2023-04-21T12:31:55.440Z,21.58
2023-04-21T12:34:23.603Z,21.58
2023-04-21T12:36:51.775Z,21.67
2023-04-21T12:39:20.654Z,21.68
2023-04-21T12:41:49.252Z,21.75
2023-04-21T12:44:17.386Z,21.26
2023-04-21T12:46:45.928Z,20.66
2023-04-21T12:49:15.935Z,20.18
2023-04-21T12:51:44.413Z,19.72
2023-04-21T12:54:12.661Z,19.66
2023-04-21T12:56:42.326Z,19.17
2023-04-21T12:59:12.051Z,17.50
2023-04-21T13:01:41.900Z,16.91
2023-04-21T13:04:12.222Z,16.62
2023-04-21T13:06:42.192Z,16.59
2023-04-21T13:09:10.824Z,16.76
2023-04-21T13:11:39.211Z,16.80
2023-04-21T13:14:08.873Z,16.90
2023-04-21T13:16:37.314Z,17.13
2023-04-21T13:19:05.835Z,17.45
2023-04-21T13:21:34.480Z,17.97
2023-04-21T13:24:04.715Z,18.18
2023-04-21T13:26:35.348Z,18.47
2023-04-21T13:29:04.349Z,18.65
2023-04-21T13:31:32.933Z,19.10
2023-04-21T13:34:02.421Z,19.48
2023-04-21T13:36:31.431Z,19.80
2023-04-21T13:39:02.148Z,20.09
2023-04-21T13:41:31.728Z,20.19
2023-04-21T13:43:59.948Z,20.03
2023-04-21T13:46:28.355Z,20.09
2023-04-21T13:48:57.153Z,20.32
2023-04-21T13:51:25.561Z,20.04
2023-04-21T13:53:55.220Z,19.90
2023-04-21T13:56:23.545Z,19.88
2023-04-21T13:58:53.387Z,19.89
2023-04-21T14:01:22.325Z,19.90
2023-04-21T14:03:50.900Z,19.79
2023-04-21T14:06:19.793Z,19.89
2023-04-21T14:08:48.201Z,19.93
2023-04-21T14:11:16.798Z,19.98
2023-04-21T14:14:00.813Z,20.04
2023-04-21T14:16:35.138Z,20.12
2023-04-21T14:19:03.607Z,20.33
2023-04-21T14:21:32.798Z,20.39
2023-04-21T14:24:01.009Z,20.45
2023-04-21T14:26:31.303Z,20.54
2023-04-21T14:29:00.700Z,20.59
2023-04-21T14:31:29.202Z,20.66
2023-04-21T14:33:59.665Z,20.71
2023-04-21T14:36:28.137Z,20.65
2023-04-21T14:38:56.635Z,20.72
2023-04-21T14:41:25.650Z,20.75
2023-04-21T14:43:56.763Z,20.75
2023-04-21T14:46:25.404Z,20.80
2023-04-21T14:48:53.757Z,20.61
2023-04-21T14:51:23.628Z,20.50
2023-04-21T14:53:52.193Z,20.44
2023-04-21T14:56:20.758Z,20.37
2023-04-21T14:58:48.892Z,19.90
2023-04-21T15:01:17.548Z,19.25
2023-04-21T15:03:46.129Z,18.93
2023-04-21T15:06:16.268Z,18.52
2023-04-21T15:08:45.980Z,18.45
2023-04-21T15:11:15.413Z,18.42
2023-04-21T15:13:43.718Z,18.49
2023-04-21T15:16:12.143Z,18.43
2023-04-21T15:18:41.670Z,18.28
2023-04-21T15:21:10.604Z,18.20
2023-04-21T15:23:38.813Z,18.15
2023-04-21T15:26:09.626Z,18.31
2023-04-21T15:28:39.620Z,18.55
2023-04-21T15:31:10.687Z,18.48
2023-04-21T15:33:38.995Z,18.58
2023-04-21T15:36:07.534Z,18.71
2023-04-21T15:38:35.674Z,18.81
2023-04-21T15:41:04.301Z,18.71
2023-04-21T15:43:35.238Z,18.69
2023-04-21T15:46:04.514Z,18.74
2023-04-21T15:48:32.691Z,18.72
2023-04-21T15:51:01.954Z,18.46
2023-04-21T15:53:30.132Z,18.40
2023-04-21T15:55:58.361Z,18.41
2023-04-21T15:58:26.713Z,18.34
2023-04-21T16:00:56.517Z,18.35
2023-04-21T16:03:25.424Z,18.32
2023-04-21T16:05:53.779Z,18.40
2023-04-21T16:08:22.278Z,18.39
2023-04-21T16:10:50.844Z,18.23
2023-04-21T16:13:19.473Z,18.19
2023-04-21T16:15:47.944Z,18.23
2023-04-21T16:18:17.847Z,18.18
2023-04-21T16:20:46.209Z,18.14
2023-04-21T16:23:15.377Z,18.12
2023-04-21T16:25:43.994Z,17.84
2023-04-21T16:28:12.754Z,17.69
2023-04-21T16:30:43.648Z,17.57
2023-04-21T16:33:13.108Z,17.47
2023-04-21T16:35:43.387Z,17.30
2023-04-21T16:38:11.864Z,17.17
2023-04-21T16:40:40.169Z,17.27
2023-04-21T16:43:08.347Z,17.22
2023-04-21T16:45:36.845Z,17.14
2023-04-21T16:48:05.282Z,17.04
2023-04-21T16:50:33.594Z,17.02
2023-04-21T16:53:03.304Z,16.99
2023-04-21T16:55:31.579Z,16.91
2023-04-21T16:58:00.978Z,16.84
2023-04-21T17:00:30.279Z,16.90
2023-04-21T17:02:58.851Z,16.93
2023-04-21T17:05:27.530Z,16.84
2023-04-21T17:07:55.715Z,16.80
2023-04-21T17:10:28.673Z,16.82
2023-04-21T17:12:57.100Z,16.89
2023-04-21T17:15:25.587Z,16.85
2023-04-21T17:17:54.160Z,16.76
2023-04-21T17:20:22.842Z,16.70
2023-04-21T17:22:51.412Z,16.34
2023-04-21T17:25:19.582Z,15.91
2023-04-21T17:27:49.212Z,15.55
2023-04-21T17:30:19.047Z,15.37
2023-04-21T17:32:47.242Z,14.94
2023-04-21T17:35:15.405Z,14.71
2023-04-21T17:37:43.517Z,14.70
2023-04-21T17:40:12.391Z,14.84
2023-04-21T17:42:41.902Z,14.93
2023-04-21T17:45:12.406Z,14.99
2023-04-21T17:47:40.880Z,14.97
2023-04-21T17:50:12.773Z,14.91
2023-04-21T17:52:41.423Z,14.78
2023-04-21T17:55:10.257Z,14.68
2023-04-21T17:57:38.369Z,14.60
2023-04-21T18:00:08.512Z,14.50
2023-04-21T18:02:38.292Z,14.45
2023-04-21T18:05:07.026Z,14.40
2023-04-21T18:07:35.350Z,14.26
2023-04-21T18:10:03.689Z,14.29
2023-04-21T18:12:31.840Z,14.23
2023-04-21T18:14:59.994Z,14.19
2023-04-21T18:17:28.285Z,14.10
2023-04-21T18:19:57.844Z,14.03
2023-04-21T18:22:26.132Z,13.98
2023-04-21T18:24:54.301Z,13.92
2023-04-21T18:27:22.651Z,13.92
2023-04-21T18:29:51.043Z,13.77
2023-04-21T18:32:21.947Z,13.71
2023-04-21T18:34:50.554Z,13.53
2023-04-21T18:37:20.164Z,13.34
2023-04-21T18:39:48.783Z,13.16
2023-04-21T18:42:17.035Z,13.02
2023-04-21T18:44:45.121Z,13.04
2023-04-21T18:47:13.512Z,12.97
2023-04-21T18:49:42.342Z,12.84
2023-04-21T18:52:10.698Z,12.69
2023-04-21T18:54:40.565Z,12.69
2023-04-21T18:57:09.783Z,12.68
2023-04-21T18:59:39.634Z,12.71
2023-04-21T19:02:11.221Z,12.75
2023-04-21T19:04:39.777Z,12.72
2023-04-21T19:07:10.186Z,12.68
2023-04-21T19:09:41.046Z,12.79
2023-04-21T19:12:09.486Z,12.73
2023-04-21T19:14:46.675Z,12.84
2023-04-21T19:17:15.875Z,12.77
2023-04-21T19:19:44.691Z,12.73
2023-04-21T19:22:14.427Z,12.56
2023-04-21T19:24:44.415Z,12.61
2023-04-21T19:27:12.710Z,12.72
2023-04-21T19:29:41.654Z,12.84
2023-04-21T19:32:10.022Z,12.85
2023-04-21T19:34:39.239Z,12.76
2023-04-21T19:37:07.940Z,12.78
2023-04-21T19:39:36.250Z,12.88
2023-04-21T19:42:06.245Z,12.86
2023-04-21T19:44:36.636Z,12.93
2023-04-21T19:47:04.974Z,12.71
2023-04-21T19:49:33.060Z,12.61
2023-04-21T19:52:01.241Z,12.52
2023-04-21T19:54:29.377Z,12.34
2023-04-21T19:56:57.726Z,12.39
2023-04-21T19:59:27.227Z,12.30
2023-04-21T20:01:55.433Z,12.36
2023-04-21T20:04:23.796Z,12.34
2023-04-21T20:06:52.237Z,12.28
2023-04-21T20:09:20.689Z,12.16
2023-04-21T20:11:48.861Z,12.23
2023-04-21T20:14:17.260Z,12.19
2023-04-21T20:16:46.762Z,12.18
2023-04-21T20:19:17.339Z,12.23
2023-04-21T20:21:45.689Z,12.21
2023-04-21T20:24:15.571Z,12.25
2023-04-21T20:26:43.798Z,12.05
2023-04-21T20:29:12.787Z,11.92
2023-04-21T20:31:41.327Z,11.87
2023-04-21T20:34:10.892Z,11.76
2023-04-21T20:36:39.132Z,11.66
2023-04-21T20:39:07.671Z,11.60
2023-04-21T20:41:35.822Z,11.56
2023-04-21T20:44:04.092Z,11.47
2023-04-21T20:46:32.303Z,11.45
2023-04-21T20:49:00.749Z,11.47
2023-04-21T20:51:30.341Z,11.65
2023-04-21T20:53:59.785Z,11.58
2023-04-21T20:56:27.986Z,11.56
2023-04-21T20:58:56.393Z,11.49
2023-04-21T21:01:24.490Z,11.46
2023-04-21T21:03:53.095Z,11.63
2023-04-21T21:06:21.803Z,11.64
2023-04-21T21:08:51.503Z,11.49
2023-04-21T21:11:20.026Z,11.44
2023-04-21T21:13:48.167Z,11.48
2023-04-21T21:16:19.099Z,11.55
2023-04-21T21:18:47.328Z,11.55
2023-04-21T21:21:17.160Z,11.54
2023-04-21T21:23:47.332Z,11.44
2023-04-21T21:26:16.845Z,11.45
2023-04-21T21:28:45.055Z,11.55
2023-04-21T21:31:13.390Z,11.51
2023-04-21T21:33:41.624Z,11.38
2023-04-21T21:36:10.150Z,11.34
2023-04-21T21:38:38.391Z,11.42
2023-04-21T21:41:07.496Z,11.39
2023-04-21T21:43:36.994Z,11.47
2023-04-21T21:46:06.296Z,11.52
2023-04-21T21:48:34.562Z,11.56
2023-04-21T21:51:02.752Z,11.57
2023-04-21T21:53:30.932Z,11.58
2023-04-21T21:55:59.145Z,11.64
2023-04-21T21:58:27.612Z,11.70
2023-04-21T22:00:57.455Z,11.76
2023-04-21T22:03:25.844Z,11.87
2023-04-21T22:05:54.339Z,11.89
2023-04-21T22:08:30.396Z,11.88
2023-04-21T22:10:59.214Z,11.86
2023-04-21T22:13:33.720Z,11.89
2023-04-21T22:16:13.273Z,11.80
2023-04-21T22:18:41.987Z,11.67
2023-04-21T22:21:26.589Z,11.59
2023-04-21T22:23:55.130Z,11.47
2023-04-21T22:26:26.734Z,11.57
2023-04-21T22:28:54.945Z,11.55
2023-04-21T22:31:25.151Z,11.56
2023-04-21T22:33:53.386Z,11.47
2023-04-21T22:36:22.068Z,11.42
2023-04-21T22:38:50.176Z,11.38
2023-04-21T22:41:18.515Z,11.39
2023-04-21T22:43:48.720Z,11.35
2023-04-21T22:46:17.052Z,11.25
2023-04-21T22:48:48.617Z,11.33
2023-04-21T22:51:18.340Z,11.38
2023-04-21T22:53:48.639Z,11.41
2023-04-21T22:56:16.875Z,11.34
2023-04-21T22:58:45.059Z,11.26
2023-04-21T23:01:13.411Z,11.23
2023-04-21T23:03:41.787Z,11.14
2023-04-21T23:06:12.631Z,11.10
2023-04-21T23:08:40.777Z,11.10
2023-04-21T23:11:08.870Z,11.08
2023-04-21T23:13:37.073Z,11.09
2023-04-21T23:16:05.389Z,11.09
2023-04-21T23:18:33.518Z,11.09
2023-04-21T23:21:01.727Z,11.06
2023-04-21T23:23:31.413Z,11.05
2023-04-21T23:25:59.559Z,11.00
2023-04-21T23:28:27.707Z,10.97
2023-04-21T23:30:55.937Z,10.93
2023-04-21T23:33:24.248Z,10.94
2023-04-21T23:35:52.523Z,10.97
2023-04-21T23:38:21.074Z,11.02
2023-04-21T23:40:50.694Z,11.11
2023-04-21T23:43:24.471Z,11.18
2023-04-21T23:45:53.219Z,11.22
2023-04-21T23:48:21.342Z,11.28
2023-04-21T23:50:49.495Z,11.35
2023-04-21T23:53:17.693Z,11.47
2023-04-21T23:55:46.267Z,11.54
2023-04-21T23:58:15.735Z,11.58
